• Join FlightAware (Why Join?)
  • Login
  • US Flag 
03:16AM EDT


 

Airport Tracker/Info


-or-


 

Live Flight TrackerFlight Track Log ✈ N3TN ✈ 28-Apr-2014 ✈ KBTV - KBTV

Flight Track Log - Related Links

Times and Time Zones

All times are in EDT time to prevent confusion due to time zone crossing. See the N3TN flight status page for this flight to view local times or setup timezone preferences in your user account.

Time Position Orientation Groundspeed Altitude Reporting Facility
EDT Latitude Longitude Course Direction KTS MPH feet Rate Location/Type
03:54PM 44.4728 -73.2072 259° West 83 96 2,400  Level Boston Center
03:55PM 44.4631 -73.2383 246° West 87 100 3,000 300 Climbing Boston Center
03:56PM 44.4536 -73.2772 251° West 102 117 3,100  Climbing Boston Center
03:57PM 44.4422 -73.3206 250° West 107 123 3,100 -60 Level Boston Center
03:58PM 44.4667 -73.1500 136° Southeast  Level FlightAware Approximate
03:58PM 44.4519 -73.3544 292° West 100 115 3,000  Level Boston Center
03:59PM 44.4719 -73.1533 259° West  Level Estimated
03:59PM 44.4764 -73.3669 340° North 99 114 3,000  Level Boston Center
04:00PM 44.5017 -73.3825 336° Northwest 96 110 3,100 -240 Climbing Boston Center
04:01PM 44.5211 -73.3925 340° North 86 99 2,600 -480 Descending Boston Center
04:02PM 44.5394 -73.4050 334° Northwest 78 90 2,200 -420 Descending Boston Center
04:03PM 44.5631 -73.4172 340° North 76 87 1,800 -420 Descending Boston Center
04:04PM 44.5817 -73.4281 337° Northwest 75 86 1,400 -420 Descending Boston Center
04:05PM 44.6006 -73.4392 337° Northwest 75 86 1,000 -420 Descending Boston Center
04:06PM 44.6183 -73.4503 336° Northwest 72 83 600 -360 Descending Boston Center
04:07PM 44.6378 -73.4608 339° North 71 82 300 -300 Descending Boston Center
04:09PM 44.6772 -73.4429 32° Northeast  Level FlightAware Approximate
04:16PM 44.7235 -73.3073 153° Southeast  Level FlightAware Approximate
04:17PM 44.6991 -73.2898 153° Southeast  Level FlightAware Approximate
04:18PM 44.6746 -73.2723 153° Southeast  Level FlightAware Approximate
04:19PM 44.6540 -73.2857 227° Southwest  Level FlightAware Approximate
04:20PM 44.6352 -73.3139 227° Southwest  Level FlightAware Approximate
04:21PM 44.6165 -73.3420 227° Southwest  Level FlightAware Approximate
04:22PM 44.5977 -73.3632 133° Southeast  Level FlightAware Approximate
04:23PM 44.5790 -73.3351 133° Southeast  Level FlightAware Approximate
04:24PM 44.5602 -73.3070 133° Southeast  Level FlightAware Approximate
04:25PM 44.5415 -73.2788 133° Southeast  Level FlightAware Approximate
04:26PM 44.5267 -73.2469 115° Southeast  Level FlightAware Approximate
04:27PM 44.5140 -73.2132 136° Southeast  Level FlightAware Approximate
04:28PM 44.4941 -73.1866 136° Southeast  Level FlightAware Approximate
04:29PM 44.4743 -73.1601 136° Southeast  Level FlightAware Approximate
04:30PM 44.4667 -73.1500 136° Southeast  Level FlightAware Approximate
04:31PM 44.4719 -73.1533 259° West  Level Estimated
04:32PM 44.4719 -73.1533 255° West  Level Estimated
04:33PM 44.4719 -73.1533 255° West  Level Estimated